Time,TemperatureF,DewpointF,PressureIn,WindDirection,WindDirectionDegrees,WindSpeedMPH,WindSpeedGustMPH,Humidity,HourlyPrecipIn,Conditions,Clouds,dailyrainin,SoftwareType,DateUTC
2013-01-23 00:04:00,14.0,4.0,30.26,SE,135,0.0,0.8,64,0.00,,,0.00,WUHU216HW,2013-01-23 06:04:00,
2013-01-23 00:09:00,14.1,4.1,30.26,South,180,2.4,3.5,64,0.00,,,0.00,WUHU216HW,2013-01-23 06:09:00,
2013-01-23 00:14:00,14.1,4.1,30.26,South,180,2.9,3.5,64,0.00,,,0.00,WUHU216HW,2013-01-23 06:14:00,
2013-01-23 00:19:00,14.1,4.1,30.26,SSE,158,0.8,2.9,64,0.00,,,0.00,WUHU216HW,2013-01-23 06:19:00,
2013-01-23 00:24:00,14.1,4.1,30.25,South,180,2.6,2.9,64,0.00,,,0.00,WUHU216HW,2013-01-23 06:24:00,
2013-01-23 00:29:00,14.1,4.1,30.25,South,180,1.3,2.6,64,0.00,,,0.00,WUHU216HW,2013-01-23 06:29:00,
2013-01-23 00:34:00,14.3,4.0,30.26,SSW,203,1.3,1.7,63,0.00,,,0.00,WUHU216HW,2013-01-23 06:34:00,
2013-01-23 00:39:00,14.3,4.0,30.25,SSW,203,3.5,3.5,63,0.00,,,0.00,WUHU216HW,2013-01-23 06:39:00,
2013-01-23 00:44:00,14.5,3.8,30.25,SSW,203,2.6,4.0,62,0.00,,,0.00,WUHU216HW,2013-01-23 06:44:00,
2013-01-23 00:49:00,14.7,3.9,30.24,SSE,158,1.3,4.0,62,0.00,,,0.00,WUHU216HW,2013-01-23 06:49:00,
2013-01-23 00:54:00,14.7,3.9,30.24,South,180,4.2,4.2,62,0.00,,,0.00,WUHU216HW,2013-01-23 06:54:00,
2013-01-23 00:59:00,14.7,3.9,30.24,SSE,158,3.1,4.2,62,0.00,,,0.00,WUHU216HW,2013-01-23 06:59:00,
2013-01-23 01:04:00,14.7,3.9,30.23,SSE,158,2.4,5.1,62,0.00,,,0.00,WUHU216HW,2013-01-23 07:04:00,
2013-01-23 01:09:00,14.7,3.6,30.23,SSE,158,2.6,5.1,61,0.00,,,0.00,WUHU216HW,2013-01-23 07:09:00,
2013-01-23 01:14:00,14.7,3.6,30.23,South,180,4.9,5.8,61,0.00,,,0.00,WUHU216HW,2013-01-23 07:14:00,
2013-01-23 01:19:00,14.7,3.6,30.24,SSE,158,2.4,5.8,61,0.00,,,0.00,WUHU216HW,2013-01-23 07:19:00,
2013-01-23 01:24:00,14.7,3.6,30.23,SE,135,0.0,4.9,61,0.00,,,0.00,WUHU216HW,2013-01-23 07:24:00,
2013-01-23 01:29:00,14.7,3.6,30.23,South,180,5.1,5.1,61,0.00,,,0.00,WUHU216HW,2013-01-23 07:29:00,
2013-01-23 01:34:00,14.9,3.8,30.23,South,180,3.5,5.1,61,0.00,,,0.00,WUHU216HW,2013-01-23 07:34:00,
2013-01-23 01:39:00,14.9,3.8,30.23,South,180,3.3,5.1,61,0.00,,,0.00,WUHU216HW,2013-01-23 07:39:00,
2013-01-23 01:44:00,15.0,4.3,30.23,SSE,158,2.0,3.5,62,0.00,,,0.00,WUHU216HW,2013-01-23 07:44:00,
2013-01-23 01:49:00,15.0,3.9,30.23,South,180,2.0,2.9,61,0.00,,,0.00,WUHU216HW,2013-01-23 07:49:00,
2013-01-23 01:54:00,15.0,3.9,30.22,South,180,4.0,4.0,61,0.00,,,0.00,WUHU216HW,2013-01-23 07:54:00,
2013-01-23 01:59:00,15.0,3.9,30.22,South,180,3.1,4.0,61,0.00,,,0.00,WUHU216HW,2013-01-23 07:59:00,
2013-01-23 02:05:00,15.0,3.9,30.23,SE,135,1.1,3.8,61,0.00,,,0.00,WUHU216HW,2013-01-23 08:05:00,
2013-01-23 02:10:00,15.2,4.4,30.22,South,180,4.2,4.2,62,0.00,,,0.00,WUHU216HW,2013-01-23 08:10:00,
2013-01-23 02:15:00,15.2,4.4,30.22,SSW,203,2.9,4.2,62,0.00,,,0.00,WUHU216HW,2013-01-23 08:15:00,
2013-01-23 02:20:00,15.2,4.4,30.22,South,180,3.1,3.1,62,0.00,,,0.00,WUHU216HW,2013-01-23 08:20:00,
2013-01-23 02:25:00,15.4,4.6,30.22,SSE,158,1.1,4.4,62,0.00,,,0.00,WUHU216HW,2013-01-23 08:25:00,
2013-01-23 02:30:00,15.4,4.6,30.22,South,180,4.0,4.4,62,0.00,,,0.00,WUHU216HW,2013-01-23 08:30:00,
2013-01-23 02:35:00,15.4,4.6,30.21,SSE,158,3.8,6.7,62,0.00,,,0.00,WUHU216HW,2013-01-23 08:35:00,
2013-01-23 02:40:00,15.4,4.6,30.22,SSE,158,2.4,6.7,62,0.00,,,0.00,WUHU216HW,2013-01-23 08:40:00,
2013-01-23 02:45:00,15.4,4.6,30.22,SSE,158,3.1,4.0,62,0.00,,,0.00,WUHU216HW,2013-01-23 08:45:00,
2013-01-23 02:50:00,15.6,4.8,30.22,South,180,3.5,4.0,62,0.00,,,0.00,WUHU216HW,2013-01-23 08:50:00,
2013-01-23 02:55:00,15.6,4.8,30.22,South,180,3.1,3.5,62,0.00,,,0.00,WUHU216HW,2013-01-23 08:55:00,
2013-01-23 03:00:00,15.4,4.6,30.22,South,180,5.8,5.8,62,0.00,,,0.00,WUHU216HW,2013-01-23 09:00:00,
2013-01-23 03:05:00,15.4,4.6,30.22,South,180,2.2,5.8,62,0.00,,,0.00,WUHU216HW,2013-01-23 09:05:00,
2013-01-23 03:10:00,15.4,4.6,30.22,SSE,158,4.2,5.8,62,0.00,,,0.00,WUHU216HW,2013-01-23 09:10:00,
2013-01-23 03:15:00,15.4,4.6,30.21,SSW,203,2.9,5.1,62,0.00,,,0.00,WUHU216HW,2013-01-23 09:15:00,
2013-01-23 03:20:00,15.4,4.6,30.21,South,180,6.2,6.7,62,0.00,,,0.00,WUHU216HW,2013-01-23 09:20:00,
2013-01-23 03:25:00,15.4,4.6,30.21,South,180,4.9,6.7,62,0.00,,,0.00,WUHU216HW,2013-01-23 09:25:00,
2013-01-23 03:30:00,15.4,4.9,30.20,SSW,203,4.0,6.2,63,0.00,,,0.00,WUHU216HW,2013-01-23 09:30:00,
2013-01-23 03:35:00,15.4,4.9,30.21,SSW,203,2.9,8.5,63,0.00,,,0.00,WUHU216HW,2013-01-23 09:35:00,
2013-01-23 03:40:00,15.2,4.8,30.21,South,180,4.9,8.5,63,0.00,,,0.00,WUHU216HW,2013-01-23 09:40:00,
2013-01-23 03:45:00,15.0,4.6,30.20,South,180,6.0,6.7,63,0.00,,,0.00,WUHU216HW,2013-01-23 09:45:00,
2013-01-23 03:50:00,14.9,4.4,30.20,South,180,7.1,7.1,63,0.00,,,0.00,WUHU216HW,2013-01-23 09:50:00,
2013-01-23 03:55:00,14.7,4.6,30.20,South,180,8.0,8.0,64,0.00,,,0.00,WUHU216HW,2013-01-23 09:55:00,
2013-01-23 04:00:00,14.5,4.5,30.20,SSE,158,6.4,8.0,64,0.00,,,0.00,WUHU216HW,2013-01-23 10:00:00,
2013-01-23 04:05:00,14.5,4.5,30.20,South,180,6.2,7.6,64,0.00,,,0.00,WUHU216HW,2013-01-23 10:05:00,
2013-01-23 04:10:00,14.3,4.3,30.20,SSW,203,3.8,6.2,64,0.00,,,0.00,WUHU216HW,2013-01-23 10:10:00,
2013-01-23 04:15:00,14.1,4.1,30.19,South,180,4.6,6.4,64,0.00,,,0.00,WUHU216HW,2013-01-23 10:15:00,
2013-01-23 04:20:00,14.1,4.5,30.20,SSW,203,6.2,8.0,65,0.00,,,0.00,WUHU216HW,2013-01-23 10:20:00,
2013-01-23 04:25:00,13.8,4.1,30.20,South,180,4.6,8.9,65,0.00,,,0.00,WUHU216HW,2013-01-23 10:25:00,
2013-01-23 04:30:00,13.6,4.0,30.20,SSE,158,6.0,8.9,65,0.00,,,0.00,WUHU216HW,2013-01-23 10:30:00,
2013-01-23 04:35:00,13.6,4.0,30.19,South,180,5.1,6.0,65,0.00,,,0.00,WUHU216HW,2013-01-23 10:35:00,
2013-01-23 04:40:00,13.2,3.9,30.19,South,180,5.5,5.5,66,0.00,,,0.00,WUHU216HW,2013-01-23 10:40:00,
2013-01-23 04:45:00,13.2,3.9,30.19,South,180,7.8,7.8,66,0.00,,,0.00,WUHU216HW,2013-01-23 10:45:00,
2013-01-23 04:50:00,13.2,3.9,30.19,South,180,7.3,7.8,66,0.00,,,0.00,WUHU216HW,2013-01-23 10:50:00,
2013-01-23 04:55:00,13.1,3.8,30.19,SSW,203,6.7,8.5,66,0.00,,,0.00,WUHU216HW,2013-01-23 10:55:00,
2013-01-23 05:00:00,12.9,3.9,30.19,South,180,6.7,8.5,67,0.00,,,0.00,WUHU216HW,2013-01-23 11:00:00,
2013-01-23 05:05:00,12.7,3.7,30.19,SSW,203,6.7,6.7,67,0.00,,,0.00,WUHU216HW,2013-01-23 11:05:00,
2013-01-23 05:10:00,12.7,3.7,30.19,SSW,203,4.4,9.1,67,0.00,,,0.00,WUHU216HW,2013-01-23 11:10:00,
2013-01-23 05:15:00,12.7,3.7,30.19,South,180,5.5,9.1,67,0.00,,,0.00,WUHU216HW,2013-01-23 11:15:00,
2013-01-23 05:20:00,12.7,4.1,30.19,SSW,203,5.1,7.6,68,0.00,,,0.00,WUHU216HW,2013-01-23 11:20:00,
2013-01-23 05:25:00,12.7,4.1,30.19,South,180,6.2,7.6,68,0.00,,,0.00,WUHU216HW,2013-01-23 11:25:00,
2013-01-23 05:30:00,12.5,3.9,30.19,SSW,203,5.3,6.2,68,0.00,,,0.00,WUHU216HW,2013-01-23 11:30:00,
2013-01-23 05:35:00,12.3,3.7,30.18,South,180,5.3,6.9,68,0.00,,,0.00,WUHU216HW,2013-01-23 11:35:00,
2013-01-23 05:40:00,12.3,4.1,30.18,South,180,5.3,6.9,69,0.00,,,0.00,WUHU216HW,2013-01-23 11:40:00,
2013-01-23 05:45:00,12.2,3.9,30.18,South,180,2.6,6.9,69,0.00,,,0.00,WUHU216HW,2013-01-23 11:45:00,
2013-01-23 05:50:00,12.0,3.7,30.18,SSW,203,4.4,5.3,69,0.00,,,0.00,WUHU216HW,2013-01-23 11:50:00,
2013-01-23 05:55:00,12.0,3.8,30.19,South,180,2.9,4.9,69,0.00,,,0.00,WUHU216HW,2013-01-23 11:55:00,
2013-01-23 06:00:00,11.8,3.6,30.18,South,180,4.6,4.9,69,0.00,,,0.00,WUHU216HW,2013-01-23 12:00:00,
2013-01-23 06:05:00,11.8,3.9,30.17,South,180,5.3,8.5,70,0.00,,,0.00,WUHU216HW,2013-01-23 12:05:00,
2013-01-23 06:11:00,11.8,3.9,30.17,South,180,5.8,8.5,70,0.00,,,0.00,WUHU216HW,2013-01-23 12:11:00,
2013-01-23 06:16:00,11.6,3.7,30.16,South,180,6.9,8.7,70,0.00,,,0.00,WUHU216HW,2013-01-23 12:16:00,
2013-01-23 06:21:00,11.6,3.7,30.17,South,180,5.1,8.7,70,0.00,,,0.00,WUHU216HW,2013-01-23 12:21:00,
2013-01-23 06:26:00,11.4,3.8,30.16,South,180,5.3,5.3,71,0.00,,,0.00,WUHU216HW,2013-01-23 12:26:00,
2013-01-23 06:31:00,11.4,3.8,30.15,SSW,203,7.1,7.1,71,0.00,,,0.00,WUHU216HW,2013-01-23 12:31:00,
2013-01-23 06:36:00,11.3,3.9,30.15,South,180,5.3,8.7,72,0.00,,,0.00,WUHU216HW,2013-01-23 12:36:00,
2013-01-23 06:41:00,11.1,3.7,30.14,South,180,5.3,8.7,72,0.00,,,0.00,WUHU216HW,2013-01-23 12:41:00,
2013-01-23 06:46:00,11.1,3.7,30.14,South,180,6.9,7.1,72,0.00,,,0.00,WUHU216HW,2013-01-23 12:46:00,
2013-01-23 06:51:00,11.1,3.7,30.15,South,180,8.0,8.0,72,0.00,,,0.00,WUHU216HW,2013-01-23 12:51:00,
2013-01-23 06:56:00,11.1,3.7,30.16,South,180,6.2,8.0,72,0.00,,,0.00,WUHU216HW,2013-01-23 12:56:00,
2013-01-23 07:01:00,11.1,3.7,30.16,South,180,3.1,6.7,72,0.00,,,0.00,WUHU216HW,2013-01-23 13:01:00,
2013-01-23 07:06:00,11.1,4.0,30.15,South,180,6.7,6.7,73,0.00,,,0.00,WUHU216HW,2013-01-23 13:06:00,
2013-01-23 07:12:00,11.1,4.0,30.15,SSW,203,6.2,6.7,73,0.00,,,0.00,WUHU216HW,2013-01-23 13:12:00,
2013-01-23 07:17:00,11.1,4.0,30.15,SSW,203,4.0,6.7,73,0.00,,,0.00,WUHU216HW,2013-01-23 13:17:00,
2013-01-23 07:22:00,11.1,4.3,30.15,South,180,3.1,6.4,74,0.00,,,0.00,WUHU216HW,2013-01-23 13:22:00,
2013-01-23 07:27:00,11.1,4.3,30.15,SSW,203,4.2,5.8,74,0.00,,,0.00,WUHU216HW,2013-01-23 13:27:00,
2013-01-23 07:32:00,11.1,4.3,30.16,South,180,3.1,6.0,74,0.00,,,0.00,WUHU216HW,2013-01-23 13:32:00,
2013-01-23 07:37:00,11.3,4.5,30.15,South,180,3.5,6.0,74,0.00,,,0.00,WUHU216HW,2013-01-23 13:37:00,
2013-01-23 07:42:00,11.3,4.5,30.15,SSW,203,2.9,6.0,74,0.00,,,0.00,WUHU216HW,2013-01-23 13:42:00,
2013-01-23 07:47:00,11.4,4.7,30.15,South,180,5.1,6.0,74,0.00,,,0.00,WUHU216HW,2013-01-23 13:47:00,
2013-01-23 07:52:00,11.6,4.8,30.15,SSE,158,1.7,5.3,74,0.00,,,0.00,WUHU216HW,2013-01-23 13:52:00,
2013-01-23 07:57:00,11.6,4.8,30.14,SSE,158,3.8,6.2,74,0.00,,,0.00,WUHU216HW,2013-01-23 13:57:00,
2013-01-23 08:02:00,11.8,5.0,30.14,South,180,4.6,6.2,74,0.00,,,0.00,WUHU216HW,2013-01-23 14:02:00,
2013-01-23 08:07:00,11.8,5.0,30.14,SSW,203,6.4,6.4,74,0.00,,,0.00,WUHU216HW,2013-01-23 14:07:00,
2013-01-23 08:12:00,12.0,5.2,30.15,South,180,6.7,6.7,74,0.00,,,0.00,WUHU216HW,2013-01-23 14:12:00,
2013-01-23 08:17:00,12.3,5.6,30.14,South,180,3.5,6.7,74,0.00,,,0.00,WUHU216HW,2013-01-23 14:17:00,
2013-01-23 08:22:00,12.5,5.7,30.14,South,180,5.5,5.5,74,0.00,,,0.00,WUHU216HW,2013-01-23 14:22:00,
2013-01-23 08:27:00,13.2,6.5,30.14,SSW,203,5.8,5.8,74,0.00,,,0.00,WUHU216HW,2013-01-23 14:27:00,
2013-01-23 08:32:00,13.6,6.8,30.13,South,180,5.1,5.8,74,0.00,,,0.00,WUHU216HW,2013-01-23 14:32:00,
2013-01-23 08:37:00,14.1,7.1,30.14,SSE,158,3.5,6.4,73,0.00,,,0.00,WUHU216HW,2013-01-23 14:37:00,
2013-01-23 08:42:00,15.4,8.2,30.14,South,180,7.1,9.1,73,0.00,,,0.00,WUHU216HW,2013-01-23 14:42:00,
2013-01-23 08:47:00,16.1,8.6,30.13,SSW,203,5.1,9.1,72,0.00,,,0.00,WUHU216HW,2013-01-23 14:47:00,
2013-01-23 08:52:00,16.8,9.0,30.13,SSW,203,5.5,7.1,71,0.00,,,0.00,WUHU216HW,2013-01-23 14:52:00,
2013-01-23 08:57:00,17.4,8.9,30.13,South,180,6.4,6.7,69,0.00,,,0.00,WUHU216HW,2013-01-23 14:57:00,
2013-01-23 09:02:00,18.1,9.6,30.14,South,180,5.5,6.7,69,0.00,,,0.00,WUHU216HW,2013-01-23 15:02:00,
2013-01-23 09:07:00,18.1,9.3,30.14,South,180,7.3,7.3,68,0.00,,,0.00,WUHU216HW,2013-01-23 15:07:00,
2013-01-23 09:12:00,18.3,9.1,30.14,SSE,158,4.4,7.3,67,0.00,,,0.00,WUHU216HW,2013-01-23 15:12:00,
2013-01-23 09:17:00,18.5,9.2,30.14,South,180,3.1,5.8,67,0.00,,,0.00,WUHU216HW,2013-01-23 15:17:00,
2013-01-23 09:22:00,18.6,9.4,30.13,South,180,6.9,6.9,67,0.00,,,0.00,WUHU216HW,2013-01-23 15:22:00,
2013-01-23 09:27:00,19.2,9.5,30.13,SW,225,6.4,11.8,66,0.00,,,0.00,WUHU216HW,2013-01-23 15:27:00,
2013-01-23 09:32:00,20.1,10.1,30.14,SW,225,6.0,11.8,65,0.00,,,0.00,WUHU216HW,2013-01-23 15:32:00,
2013-01-23 09:37:00,21.0,10.6,30.14,SW,225,5.3,6.4,64,0.00,,,0.00,WUHU216HW,2013-01-23 15:37:00,
2013-01-23 09:42:00,21.9,11.1,30.13,South,180,4.4,9.3,63,0.00,,,0.00,WUHU216HW,2013-01-23 15:42:00,
2013-01-23 09:47:00,22.8,12.0,30.13,SW,225,8.5,9.3,63,0.00,,,0.00,WUHU216HW,2013-01-23 15:47:00,
2013-01-23 09:52:00,22.8,11.3,30.13,SSW,203,7.3,8.5,61,0.00,,,0.00,WUHU216HW,2013-01-23 15:52:00,
2013-01-23 09:57:00,23.7,12.1,30.13,SSW,203,5.8,7.3,61,0.00,,,0.00,WUHU216HW,2013-01-23 15:57:00,
2013-01-23 10:02:00,24.0,12.2,30.12,SSW,203,5.1,6.9,60,0.00,,,0.00,WUHU216HW,2013-01-23 16:02:00,
2013-01-23 10:07:00,24.9,13.0,30.12,SSW,203,4.0,8.2,60,0.00,,,0.00,WUHU216HW,2013-01-23 16:07:00,
2013-01-23 10:12:00,26.7,13.4,30.13,WSW,248,5.1,8.2,57,0.00,,,0.00,WUHU216HW,2013-01-23 16:12:00,
2013-01-23 10:17:00,27.6,14.3,30.13,SSW,203,6.7,8.0,57,0.00,,,0.00,WUHU216HW,2013-01-23 16:17:00,
2013-01-23 10:22:00,28.7,15.4,30.13,SSW,203,5.1,6.9,57,0.00,,,0.00,WUHU216HW,2013-01-23 16:22:00,
2013-01-23 10:27:00,30.3,16.0,30.12,SW,225,8.7,8.7,55,0.00,,,0.00,WUHU216HW,2013-01-23 16:27:00,
2013-01-23 10:32:00,31.2,16.4,30.13,SW,225,8.9,8.9,54,0.00,,,0.00,WUHU216HW,2013-01-23 16:32:00,
2013-01-23 10:37:00,32.1,16.8,30.12,WSW,248,6.2,8.9,53,0.00,,,0.00,WUHU216HW,2013-01-23 16:37:00,
2013-01-23 10:42:00,31.8,15.6,30.12,West,270,4.2,9.1,51,0.00,,,0.00,WUHU216HW,2013-01-23 16:42:00,
2013-01-23 10:47:00,32.1,15.6,30.12,SW,225,3.8,9.1,50,0.00,,,0.00,WUHU216HW,2013-01-23 16:47:00,
2013-01-23 10:52:00,32.0,15.8,30.12,SSW,203,7.1,7.1,51,0.00,,,0.00,WUHU216HW,2013-01-23 16:52:00,
2013-01-23 10:57:00,33.6,17.3,30.12,SW,225,2.6,8.0,51,0.00,,,0.00,WUHU216HW,2013-01-23 16:57:00,
2013-01-23 11:02:00,35.4,18.1,30.12,WNW,293,6.7,8.0,49,0.00,,,0.00,WUHU216HW,2013-01-23 17:02:00,
2013-01-23 11:07:00,35.9,18.1,30.12,NW,315,7.6,7.6,48,0.00,,,0.00,WUHU216HW,2013-01-23 17:07:00,
2013-01-23 11:12:00,35.7,17.9,30.12,West,270,6.2,7.6,48,0.00,,,0.00,WUHU216HW,2013-01-23 17:12:00,
2013-01-23 11:17:00,36.1,18.3,30.12,WSW,248,5.1,6.2,48,0.00,,,0.00,WUHU216HW,2013-01-23 17:17:00,
2013-01-23 11:22:00,35.7,17.9,30.12,West,270,1.5,7.3,48,0.00,,,0.00,WUHU216HW,2013-01-23 17:22:00,
2013-01-23 11:27:00,36.6,17.7,30.11,NW,315,4.2,7.3,46,0.00,,,0.00,WUHU216HW,2013-01-23 17:27:00,
2013-01-23 11:32:00,36.8,18.4,30.11,WSW,248,3.3,6.4,47,0.00,,,0.00,WUHU216HW,2013-01-23 17:32:00,
2013-01-23 11:37:00,37.5,18.5,30.11,WNW,293,7.6,7.6,46,0.00,,,0.00,WUHU216HW,2013-01-23 17:37:00,
2013-01-23 11:42:00,38.1,19.5,30.11,NW,315,2.6,7.6,47,0.00,,,0.00,WUHU216HW,2013-01-23 17:42:00,
2013-01-23 11:47:00,39.3,19.6,30.11,West,270,4.4,7.6,45,0.00,,,0.00,WUHU216HW,2013-01-23 17:47:00,
2013-01-23 11:52:00,39.7,19.4,30.11,West,270,8.5,8.5,44,0.00,,,0.00,WUHU216HW,2013-01-23 17:52:00,
2013-01-23 11:57:00,40.8,20.9,30.11,NNW,338,11.8,11.8,45,0.00,,,0.00,WUHU216HW,2013-01-23 17:57:00,
2013-01-23 12:02:00,41.3,20.9,30.10,NNE,23,5.1,11.8,44,0.00,,,0.00,WUHU216HW,2013-01-23 18:02:00,
2013-01-23 12:07:00,41.1,20.2,30.10,NW,315,4.2,11.8,43,0.00,,,0.00,WUHU216HW,2013-01-23 18:07:00,
2013-01-23 12:12:00,39.9,19.0,30.10,West,270,2.2,10.2,43,0.00,,,0.00,WUHU216HW,2013-01-23 18:12:00,
2013-01-23 12:17:00,40.1,19.7,30.10,WNW,293,4.9,10.2,44,0.00,,,0.00,WUHU216HW,2013-01-23 18:17:00,
2013-01-23 12:22:00,40.1,19.4,30.10,North,0,0.0,12.9,44,0.00,,,0.00,WUHU216HW,2013-01-23 18:22:00,
2013-01-23 12:27:00,40.2,19.4,30.10,WNW,293,4.4,12.9,43,0.00,,,0.00,WUHU216HW,2013-01-23 18:27:00,
2013-01-23 12:32:00,40.6,20.7,30.09,NW,315,5.3,5.5,45,0.00,,,0.00,WUHU216HW,2013-01-23 18:32:00,
2013-01-23 12:37:00,40.1,19.9,30.09,WNW,293,6.2,9.6,43,0.00,,,0.00,WUHU216HW,2013-01-23 18:37:00,
2013-01-23 12:42:00,39.3,19.6,30.09,WNW,293,5.1,9.6,45,0.00,,,0.00,WUHU216HW,2013-01-23 18:42:00,
2013-01-23 12:47:00,39.0,19.3,30.09,WNW,293,1.5,6.2,45,0.00,,,0.00,WUHU216HW,2013-01-23 18:47:00,
2013-01-23 12:52:00,39.7,19.9,30.09,WNW,293,2.9,12.5,45,0.00,,,0.00,WUHU216HW,2013-01-23 18:52:00,
2013-01-23 12:57:00,39.5,20.3,30.09,West,270,8.0,12.5,46,0.00,,,0.00,WUHU216HW,2013-01-23 18:57:00,
2013-01-23 13:02:00,39.7,20.4,30.09,WNW,293,7.6,8.0,46,0.00,,,0.00,WUHU216HW,2013-01-23 19:02:00,
2013-01-23 13:07:00,39.0,19.6,30.09,NNW,338,10.0,10.0,46,0.00,,,0.00,WUHU216HW,2013-01-23 19:07:00,
2013-01-23 13:12:00,38.3,19.7,30.09,WNW,293,6.2,10.0,47,0.00,,,0.00,WUHU216HW,2013-01-23 19:12:00,
2013-01-23 13:17:00,38.6,20.5,30.09,NE,45,3.8,10.0,48,0.00,,,0.00,WUHU216HW,2013-01-23 19:17:00,
2013-01-23 13:22:00,39.0,20.6,30.09,NW,315,7.1,7.1,48,0.00,,,0.00,WUHU216HW,2013-01-23 19:22:00,
2013-01-23 13:27:00,38.8,20.2,30.09,NNW,338,2.4,10.0,47,0.00,,,0.00,WUHU216HW,2013-01-23 19:27:00,
2013-01-23 13:32:00,38.4,19.8,30.09,NW,315,4.0,10.0,47,0.00,,,0.00,WUHU216HW,2013-01-23 19:32:00,
2013-01-23 13:37:00,37.9,19.9,30.09,NNW,338,15.8,15.8,48,0.00,,,0.00,WUHU216HW,2013-01-23 19:37:00,
2013-01-23 13:42:00,36.5,18.6,30.09,North,0,4.4,15.8,48,0.00,,,0.00,WUHU216HW,2013-01-23 19:42:00,
2013-01-23 13:47:00,35.7,18.5,30.09,NW,315,10.0,15.8,49,0.00,,,0.00,WUHU216HW,2013-01-23 19:47:00,
2013-01-23 13:52:00,35.2,17.9,30.09,WNW,293,9.8,10.2,49,0.00,,,0.00,WUHU216HW,2013-01-23 19:52:00,
2013-01-23 13:57:00,34.8,18.1,30.09,NW,315,5.8,10.2,50,0.00,,,0.00,WUHU216HW,2013-01-23 19:57:00,
2013-01-23 14:02:00,34.7,18.3,30.09,West,270,3.8,9.8,51,0.00,,,0.00,WUHU216HW,2013-01-23 20:02:00,
2013-01-23 14:07:00,34.8,18.0,30.09,NNW,338,6.2,12.7,51,0.00,,,0.00,WUHU216HW,2013-01-23 20:07:00,
2013-01-23 14:13:00,33.9,18.1,30.09,West,270,3.8,12.7,52,0.00,,,0.00,WUHU216HW,2013-01-23 20:13:00,
2013-01-23 14:18:00,33.9,18.5,30.10,NW,315,1.5,10.5,53,0.00,,,0.00,WUHU216HW,2013-01-23 20:18:00,
2013-01-23 14:23:00,33.6,18.6,30.09,NW,315,10.2,10.2,54,0.00,,,0.00,WUHU216HW,2013-01-23 20:23:00,
2013-01-23 14:28:00,33.6,18.1,30.10,NNW,338,10.9,10.9,53,0.00,,,0.00,WUHU216HW,2013-01-23 20:28:00,
2013-01-23 14:32:00,33.0,18.1,30.10,NNW,338,8.0,10.9,54,0.00,,,0.00,WUHU216HW,2013-01-23 20:32:00,
2013-01-23 14:37:00,32.5,17.6,30.10,West,270,6.7,10.9,54,0.00,,,0.00,WUHU216HW,2013-01-23 20:37:00,
2013-01-23 14:42:00,32.3,17.9,30.10,NNW,338,4.4,7.8,55,0.00,,,0.00,WUHU216HW,2013-01-23 20:42:00,
2013-01-23 14:47:00,32.5,18.0,30.11,WNW,293,5.8,7.8,55,0.00,,,0.00,WUHU216HW,2013-01-23 20:47:00,
2013-01-23 14:53:00,32.3,17.9,30.11,NNW,338,5.1,6.7,55,0.00,,,0.00,WUHU216HW,2013-01-23 20:53:00,
2013-01-23 14:58:00,31.8,17.8,30.11,WNW,293,5.8,6.7,56,0.00,,,0.00,WUHU216HW,2013-01-23 20:58:00,
2013-01-23 15:03:00,31.6,17.6,30.11,NNW,338,6.0,6.0,56,0.00,,,0.00,WUHU216HW,2013-01-23 21:03:00,
2013-01-23 15:08:00,30.9,17.4,30.11,WNW,293,2.4,6.0,57,0.00,,,0.00,WUHU216HW,2013-01-23 21:08:00,
2013-01-23 15:13:00,30.7,17.2,30.12,WNW,293,7.1,7.1,57,0.00,,,0.00,WUHU216HW,2013-01-23 21:13:00,
2013-01-23 15:18:00,30.7,17.6,30.12,WNW,293,3.5,7.1,58,0.00,,,0.00,WUHU216HW,2013-01-23 21:18:00,
2013-01-23 15:23:00,30.7,17.6,30.12,NNW,338,5.1,7.3,58,0.00,,,0.00,WUHU216HW,2013-01-23 21:23:00,
2013-01-23 15:28:00,30.7,17.6,30.12,NW,315,5.3,7.3,58,0.00,,,0.00,WUHU216HW,2013-01-23 21:28:00,
2013-01-23 15:33:00,30.0,17.3,30.12,WNW,293,3.3,5.3,59,0.00,,,0.00,WUHU216HW,2013-01-23 21:33:00,
2013-01-23 15:38:00,29.4,16.8,30.13,WNW,293,4.6,6.4,59,0.00,,,0.00,WUHU216HW,2013-01-23 21:38:00,
2013-01-23 15:43:00,29.4,17.3,30.13,NNW,338,10.0,10.0,60,0.00,,,0.00,WUHU216HW,2013-01-23 21:43:00,
2013-01-23 15:49:00,29.1,16.9,30.13,NNW,338,9.8,10.0,60,0.00,,,0.00,WUHU216HW,2013-01-23 21:49:00,
2013-01-23 15:54:00,28.7,16.6,30.13,NNE,23,4.0,12.9,60,0.00,,,0.00,WUHU216HW,2013-01-23 21:54:00,
2013-01-23 15:59:00,28.5,16.5,30.13,NW,315,4.2,12.9,60,0.00,,,0.00,WUHU216HW,2013-01-23 21:59:00,
2013-01-23 16:04:00,28.2,16.1,30.13,WNW,293,3.5,9.1,60,0.00,,,0.00,WUHU216HW,2013-01-23 22:04:00,
2013-01-23 16:09:00,28.0,16.3,30.14,WNW,293,6.0,9.1,61,0.00,,,0.00,WUHU216HW,2013-01-23 22:09:00,
2013-01-23 16:14:00,27.6,15.9,30.15,WNW,293,13.4,13.4,61,0.00,,,0.00,WUHU216HW,2013-01-23 22:14:00,
2013-01-23 16:19:00,27.5,16.1,30.14,NNW,338,5.8,13.4,62,0.00,,,0.00,WUHU216HW,2013-01-23 22:19:00,
2013-01-23 16:24:00,27.3,15.9,30.14,NW,315,8.2,13.4,62,0.00,,,0.00,WUHU216HW,2013-01-23 22:24:00,
2013-01-23 16:29:00,27.5,16.1,30.14,NNW,338,1.3,8.2,62,0.00,,,0.00,WUHU216HW,2013-01-23 22:29:00,
2013-01-23 16:34:00,27.3,15.9,30.14,North,0,4.2,8.2,62,0.00,,,0.00,WUHU216HW,2013-01-23 22:34:00,
2013-01-23 16:39:00,27.3,15.9,30.15,WNW,293,2.2,7.3,62,0.00,,,0.00,WUHU216HW,2013-01-23 22:39:00,
2013-01-23 16:44:00,27.3,16.3,30.14,WNW,293,1.3,10.2,63,0.00,,,0.00,WUHU216HW,2013-01-23 22:44:00,
2013-01-23 16:49:00,27.1,16.1,30.15,WNW,293,5.1,10.2,63,0.00,,,0.00,WUHU216HW,2013-01-23 22:49:00,
2013-01-23 16:54:00,27.1,16.5,30.15,NNW,338,4.4,6.0,64,0.00,,,0.00,WUHU216HW,2013-01-23 22:54:00,
2013-01-23 16:59:00,26.7,16.1,30.16,North,0,11.4,11.4,64,0.00,,,0.00,WUHU216HW,2013-01-23 22:59:00,
2013-01-23 17:04:00,26.4,15.8,30.16,North,0,3.5,11.4,64,0.00,,,0.00,WUHU216HW,2013-01-23 23:04:00,
2013-01-23 17:09:00,26.0,15.4,30.17,WNW,293,4.6,11.4,64,0.00,,,0.00,WUHU216HW,2013-01-23 23:09:00,
2013-01-23 17:14:00,25.7,15.4,30.17,NW,315,10.2,10.2,65,0.00,,,0.00,WUHU216HW,2013-01-23 23:14:00,
2013-01-23 17:19:00,25.5,15.6,30.17,NNW,338,13.4,13.4,66,0.00,,,0.00,WUHU216HW,2013-01-23 23:19:00,
2013-01-23 17:24:00,25.3,15.4,30.18,WNW,293,6.9,13.4,66,0.00,,,0.00,WUHU216HW,2013-01-23 23:24:00,
2013-01-23 17:29:00,24.9,15.1,30.18,NNW,338,4.2,10.2,66,0.00,,,0.00,WUHU216HW,2013-01-23 23:29:00,
2013-01-23 17:34:00,24.8,14.9,30.19,NNW,338,2.4,7.3,66,0.00,,,0.00,WUHU216HW,2013-01-23 23:34:00,
2013-01-23 17:39:00,24.6,14.9,30.19,North,0,5.1,11.8,67,0.00,,,0.00,WUHU216HW,2013-01-23 23:39:00,
2013-01-23 17:44:00,24.4,14.9,30.20,NNW,338,3.8,11.8,67,0.00,,,0.00,WUHU216HW,2013-01-23 23:44:00,
2013-01-23 17:49:00,24.0,14.6,30.20,WNW,293,6.0,6.0,67,0.00,,,0.00,WUHU216HW,2013-01-23 23:49:00,
2013-01-23 17:54:00,23.7,14.3,30.20,NNW,338,6.2,6.2,67,0.00,,,0.00,WUHU216HW,2013-01-23 23:54:00,
2013-01-23 17:59:00,23.5,14.4,30.20,NNW,338,5.3,7.3,68,0.00,,,0.00,WUHU216HW,2013-01-23 23:59:00,
2013-01-23 18:04:00,23.5,14.4,30.20,WNW,293,1.5,7.3,68,0.00,,,0.00,WUHU216HW,2013-01-24 00:04:00,
2013-01-23 18:09:00,23.5,14.4,30.20,NNW,338,5.8,5.8,68,0.00,,,0.00,WUHU216HW,2013-01-24 00:09:00,
2013-01-23 18:14:00,23.3,14.6,30.20,NNW,338,4.2,5.8,69,0.00,,,0.00,WUHU216HW,2013-01-24 00:14:00,
2013-01-23 18:19:00,23.3,14.6,30.21,WNW,293,6.9,6.9,69,0.00,,,0.00,WUHU216HW,2013-01-24 00:19:00,
2013-01-23 18:24:00,23.1,14.5,30.21,NNE,23,4.4,6.9,69,0.00,,,0.00,WUHU216HW,2013-01-24 00:24:00,
2013-01-23 18:29:00,23.1,14.5,30.22,NNW,338,6.9,6.9,69,0.00,,,0.00,WUHU216HW,2013-01-24 00:29:00,
2013-01-23 18:34:00,23.0,14.3,30.22,North,0,10.9,10.9,69,0.00,,,0.00,WUHU216HW,2013-01-24 00:34:00,
2013-01-23 18:39:00,23.0,14.0,30.23,North,0,4.0,10.9,68,0.00,,,0.00,WUHU216HW,2013-01-24 00:39:00,
2013-01-23 18:44:00,22.8,13.4,30.23,North,0,13.8,13.8,67,0.00,,,0.00,WUHU216HW,2013-01-24 00:44:00,
2013-01-23 18:49:00,22.8,12.7,30.23,NNW,338,10.7,13.8,65,0.00,,,0.00,WUHU216HW,2013-01-24 00:49:00,
2013-01-23 18:54:00,22.2,12.2,30.23,North,0,12.7,13.8,65,0.00,,,0.00,WUHU216HW,2013-01-24 00:54:00,
2013-01-23 18:59:00,21.9,11.8,30.23,NNW,338,7.3,12.7,65,0.00,,,0.00,WUHU216HW,2013-01-24 00:59:00,
2013-01-23 19:04:00,21.9,11.8,30.24,WNW,293,2.6,15.8,65,0.00,,,0.00,WUHU216HW,2013-01-24 01:04:00,
2013-01-23 19:09:00,21.7,12.0,30.24,NNW,338,5.8,15.8,66,0.00,,,0.00,WUHU216HW,2013-01-24 01:09:00,
2013-01-23 19:14:00,21.5,11.5,30.25,NW,315,7.3,12.3,65,0.00,,,0.00,WUHU216HW,2013-01-24 01:14:00,
2013-01-23 19:19:00,21.3,11.7,30.24,North,0,8.5,11.1,66,0.00,,,0.00,WUHU216HW,2013-01-24 01:19:00,
2013-01-23 19:24:00,21.0,11.3,30.25,NNW,338,9.6,9.6,66,0.00,,,0.00,WUHU216HW,2013-01-24 01:24:00,
2013-01-23 19:29:00,20.8,10.8,30.25,North,0,15.6,18.7,65,0.00,,,0.00,WUHU216HW,2013-01-24 01:29:00,
2013-01-23 19:35:00,20.4,10.1,30.26,North,0,10.9,18.7,64,0.00,,,0.00,WUHU216HW,2013-01-24 01:35:00,
2013-01-23 19:40:00,19.9,9.6,30.27,NW,315,18.1,18.1,64,0.00,,,0.00,WUHU216HW,2013-01-24 01:40:00,
2013-01-23 19:45:00,19.7,9.0,30.27,NW,315,10.0,18.1,63,0.00,,,0.00,WUHU216HW,2013-01-24 01:45:00,
2013-01-23 19:50:00,19.4,8.3,30.27,NW,315,4.9,13.8,62,0.00,,,0.00,WUHU216HW,2013-01-24 01:50:00,
2013-01-23 19:55:00,19.2,8.2,30.27,NNW,338,8.7,10.2,62,0.00,,,0.00,WUHU216HW,2013-01-24 01:55:00,
2013-01-23 20:00:00,19.0,8.0,30.28,North,0,9.8,13.4,62,0.00,,,0.00,WUHU216HW,2013-01-24 02:00:00,
2013-01-23 20:05:00,18.5,6.8,30.28,NNW,338,18.3,18.3,60,0.00,,,0.00,WUHU216HW,2013-01-24 02:05:00,
2013-01-23 20:10:00,18.3,6.3,30.28,North,0,12.9,21.0,59,0.00,,,0.00,WUHU216HW,2013-01-24 02:10:00,
2013-01-23 20:15:00,17.9,6.0,30.28,NNW,338,9.8,21.0,59,0.00,,,0.00,WUHU216HW,2013-01-24 02:15:00,
2013-01-23 20:20:00,17.4,5.5,30.29,NNW,338,8.9,15.6,59,0.00,,,0.00,WUHU216HW,2013-01-24 02:20:00,
2013-01-23 20:25:00,17.0,5.1,30.29,NNW,338,9.8,12.5,59,0.00,,,0.00,WUHU216HW,2013-01-24 02:25:00,
2013-01-23 20:30:00,16.8,4.9,30.29,North,0,15.8,15.8,59,0.00,,,0.00,WUHU216HW,2013-01-24 02:30:00,
2013-01-23 20:35:00,16.3,4.8,30.30,NNW,338,22.1,22.1,60,0.00,,,0.00,WUHU216HW,2013-01-24 02:35:00,
2013-01-23 20:40:00,16.3,4.8,30.30,North,0,16.7,22.1,60,0.00,,,0.00,WUHU216HW,2013-01-24 02:40:00,
2013-01-23 20:45:00,15.9,4.0,30.30,North,0,13.4,22.3,59,0.00,,,0.00,WUHU216HW,2013-01-24 02:45:00,
2013-01-23 20:51:00,15.4,2.8,30.31,North,0,3.8,22.3,57,0.00,,,0.00,WUHU216HW,2013-01-24 02:51:00,
2013-01-23 20:56:00,14.9,1.9,30.31,North,0,15.6,20.5,56,0.00,,,0.00,WUHU216HW,2013-01-24 02:56:00,
2013-01-23 21:01:00,14.5,1.9,30.32,NNW,338,16.7,16.7,57,0.00,,,0.00,WUHU216HW,2013-01-24 03:01:00,
2013-01-23 21:06:00,13.8,1.6,30.32,NNW,338,17.4,21.2,58,0.00,,,0.00,WUHU216HW,2013-01-24 03:06:00,
2013-01-23 21:11:00,13.6,1.5,30.32,NNW,338,9.8,21.2,58,0.00,,,0.00,WUHU216HW,2013-01-24 03:11:00,
2013-01-23 21:16:00,13.6,1.5,30.33,North,0,5.8,17.4,58,0.00,,,0.00,WUHU216HW,2013-01-24 03:16:00,
2013-01-23 21:21:00,13.2,1.5,30.34,North,0,10.2,14.3,59,0.00,,,0.00,WUHU216HW,2013-01-24 03:21:00,
2013-01-23 21:26:00,13.1,1.3,30.34,North,0,13.4,14.3,59,0.00,,,0.00,WUHU216HW,2013-01-24 03:26:00,
2013-01-23 21:31:00,12.9,1.1,30.35,NNE,23,16.5,16.5,59,0.00,,,0.00,WUHU216HW,2013-01-24 03:31:00,
2013-01-23 21:36:00,12.7,1.0,30.35,NNW,338,8.2,16.5,59,0.00,,,0.00,WUHU216HW,2013-01-24 03:36:00,
2013-01-23 21:41:00,12.3,1.0,30.35,North,0,19.2,19.2,60,0.00,,,0.00,WUHU216HW,2013-01-24 03:41:00,
2013-01-23 21:46:00,12.0,0.6,30.36,NNE,23,5.5,19.2,60,0.00,,,0.00,WUHU216HW,2013-01-24 03:46:00,
2013-01-23 21:51:00,12.0,1.0,30.35,NW,315,11.4,19.2,61,0.00,,,0.00,WUHU216HW,2013-01-24 03:51:00,
2013-01-23 21:56:00,11.6,0.6,30.36,North,0,17.8,17.8,61,0.00,,,0.00,WUHU216HW,2013-01-24 03:56:00,
2013-01-23 22:01:00,11.3,0.7,30.36,NNE,23,9.8,17.8,62,0.00,,,0.00,WUHU216HW,2013-01-24 04:01:00,
2013-01-23 22:06:00,11.1,0.5,30.37,NNW,338,14.3,17.8,62,0.00,,,0.00,WUHU216HW,2013-01-24 04:06:00,
2013-01-23 22:11:00,10.9,0.6,30.37,NNW,338,13.4,14.3,63,0.00,,,0.00,WUHU216HW,2013-01-24 04:11:00,
2013-01-23 22:16:00,10.7,0.5,30.37,NNW,338,17.2,17.2,63,0.00,,,0.00,WUHU216HW,2013-01-24 04:16:00,
2013-01-23 22:21:00,10.5,0.3,30.38,North,0,13.4,17.2,63,0.00,,,0.00,WUHU216HW,2013-01-24 04:21:00,
2013-01-23 22:26:00,10.5,0.3,30.38,NW,315,17.6,17.6,64,0.00,,,0.00,WUHU216HW,2013-01-24 04:26:00,
2013-01-23 22:31:00,10.2,0.3,30.38,NNW,338,16.1,17.6,64,0.00,,,0.00,WUHU216HW,2013-01-24 04:31:00,
2013-01-23 22:36:00,10.2,0.3,30.38,NW,315,8.9,17.6,64,0.00,,,0.00,WUHU216HW,2013-01-24 04:36:00,
2013-01-23 22:41:00,10.0,0.1,30.39,NNE,23,10.7,16.1,64,0.00,,,0.00,WUHU216HW,2013-01-24 04:41:00,
2013-01-23 22:46:00,10.0,0.1,30.38,NNW,338,6.0,14.0,64,0.00,,,0.00,WUHU216HW,2013-01-24 04:46:00,
2013-01-23 22:51:00,9.8,0.3,30.38,North,0,14.5,14.5,65,0.00,,,0.00,WUHU216HW,2013-01-24 04:51:00,
2013-01-23 22:56:00,9.6,0.1,30.39,North,0,13.6,14.5,65,0.00,,,0.00,WUHU216HW,2013-01-24 04:56:00,
2013-01-23 23:00:00,9.6,0.1,30.39,NNW,338,7.6,14.5,65,0.00,,,0.00,WUHU216HW,2013-01-24 05:00:00,
2013-01-23 23:01:00,9.6,0.1,30.39,North,0,8.5,13.6,65,0.00,,,0.00,WUHU216HW,2013-01-24 05:01:00,
2013-01-23 23:02:00,9.6,0.1,30.39,North,0,8.5,13.6,65,0.00,,,0.00,WUHU216HW,2013-01-24 05:02:00,
2013-01-23 23:07:00,9.6,0.5,30.40,North,0,11.8,11.8,66,0.00,,,0.00,WUHU216HW,2013-01-24 05:07:00,
2013-01-23 23:12:00,9.5,0.3,30.41,NNW,338,15.2,15.2,66,0.00,,,0.00,WUHU216HW,2013-01-24 05:12:00,
2013-01-23 23:17:00,9.3,0.1,30.40,NNW,338,7.6,15.2,66,0.00,,,0.00,WUHU216HW,2013-01-24 05:17:00,
2013-01-23 23:22:00,9.3,0.1,30.41,NNW,338,9.6,14.0,66,0.00,,,0.00,WUHU216HW,2013-01-24 05:22:00,
2013-01-23 23:27:00,9.1,0.3,30.42,NNE,23,11.1,14.0,67,0.00,,,0.00,WUHU216HW,2013-01-24 05:27:00,
2013-01-23 23:32:00,9.1,0.3,30.42,NNW,338,3.8,11.1,67,0.00,,,0.00,WUHU216HW,2013-01-24 05:32:00,
2013-01-23 23:37:00,8.7,0.0,30.42,North,0,5.3,10.2,67,0.00,,,0.00,WUHU216HW,2013-01-24 05:37:00,
2013-01-23 23:42:00,8.7,-0.3,30.43,NNW,338,6.9,9.3,66,0.00,,,0.00,WUHU216HW,2013-01-24 05:42:00,
2013-01-23 23:47:00,8.7,-0.3,30.43,NNW,338,9.1,9.3,66,0.00,,,0.00,WUHU216HW,2013-01-24 05:47:00,
2013-01-23 23:52:00,8.7,-0.6,30.44,NW,315,9.3,9.3,65,0.00,,,0.00,WUHU216HW,2013-01-24 05:52:00,
2013-01-23 23:57:00,8.6,-1.1,30.43,North,0,6.2,9.3,64,0.00,,,0.00,WUHU216HW,2013-01-24 05:57:00,